Time;durP1;ratioP1;P1;durP2;ratioP2;P2;SDS_P1;SDS_P2;PMS_P1;PMS_P2;Temp;Humidity;BMP_temperature;BMP_pressure;BME280_temperature;BME280_humidity;BME280_pressure;Samples;Min_cycle;Max_cycle;Signal;HPM_P1;HPM_P2
2022/04/17 00:03:38;;;;;;;103.13;94.60;;;;;;;10.36;100.00;102802.34;1882820;74;86240;-74
2022/04/17 00:09:23;;;;;;;100.17;91.97;;;;;;;10.27;100.00;102795.45;1867305;75;86261;-74
2022/04/17 00:15:09;;;;;;;100.80;92.53;;;;;;;10.26;100.00;102792.36;1975228;71;40486;-74
2022/04/17 00:20:54;;;;;;;101.80;93.43;;;;;;;10.19;100.00;102791.59;1839528;75;86540;-73
2022/04/17 00:26:38;;;;;;;101.97;93.37;;;;;;;10.21;100.00;102779.72;1871754;74;86605;-74
2022/04/17 00:32:23;;;;;;;100.00;91.43;;;;;;;10.18;100.00;102776.03;1799658;77;86371;-74
2022/04/17 00:38:07;;;;;;;103.23;94.63;;;;;;;10.17;100.00;102772.95;1984764;71;39472;-74
2022/04/17 00:43:51;;;;;;;108.37;99.07;;;;;;;9.83;100.00;102759.19;1846268;76;86109;-75
2022/04/17 00:49:35;;;;;;;104.83;95.67;;;;;;;9.96;100.00;102764.02;1868843;75;86416;-73
2022/04/17 00:55:21;;;;;;;101.87;93.07;;;;;;;9.82;100.00;102750.00;1913579;72;86510;-72
2022/04/17 01:01:04;;;;;;;105.17;95.67;;;;;;;9.80;100.00;102747.14;1975623;71;39583;-73
2022/04/17 01:06:49;;;;;;;107.20;97.53;;;;;;;9.74;100.00;102737.84;1837246;75;86763;-76
2022/04/17 01:12:33;;;;;;;103.97;94.53;;;;;;;9.76;100.00;102730.65;1876138;75;85407;-76
2022/04/17 01:18:17;;;;;;;102.13;93.10;;;;;;;9.73;100.00;102722.80;1943708;73;85790;-76
2022/04/17 01:30:11;;;;;;;104.63;95.27;;;;;;;9.53;100.00;102720.30;1983013;71;39496;-76
2022/04/17 01:35:55;;;;;;;108.47;98.47;;;;;;;9.50;100.00;102711.88;1842375;76;86663;-74
2022/04/17 01:41:40;;;;;;;103.57;94.20;;;;;;;9.57;100.00;102711.28;1883303;74;86350;-73
2022/04/17 01:47:24;;;;;;;107.23;97.67;;;;;;;9.57;100.00;102709.89;1803867;77;86405;-74
2022/04/17 01:53:08;;;;;;;102.97;93.40;;;;;;;9.58;100.00;102696.87;1979328;71;40350;-74
2022/04/17 01:58:50;;;;;;;108.27;98.00;;;;;;;9.45;100.00;102688.18;1831164;76;86469;-74
2022/04/17 02:04:36;;;;;;;105.90;96.53;;;;;;;9.54;100.00;102685.94;1882603;73;86286;-74
2022/04/17 02:10:21;;;;;;;105.30;95.50;;;;;;;9.21;100.00;102679.93;1930044;73;86339;-75
2022/04/17 02:16:06;;;;;;;103.47;93.67;;;;;;;9.37;100.00;102674.59;1923058;71;39596;-73
2022/04/17 02:21:50;;;;;;;106.07;95.57;;;;;;;9.37;100.00;102669.63;1842945;76;86392;-74
2022/04/17 02:27:35;;;;;;;105.57;95.50;;;;;;;9.30;100.00;102666.91;1878768;73;85932;-75
2022/04/17 02:33:21;;;;;;;107.00;96.60;;;;;;;9.25;100.00;102665.91;1902508;72;86370;-73
2022/04/17 02:39:05;;;;;;;108.27;97.10;;;;;;;9.19;100.00;102655.23;1979761;71;39698;-75
2022/04/17 02:44:49;;;;;;;111.93;100.37;;;;;;;9.30;100.00;102653.05;1834761;76;85409;-74
2022/04/17 02:50:34;;;;;;;110.33;99.43;;;;;;;9.19;100.00;102652.45;1877986;75;86233;-74
2022/04/17 02:56:19;;;;;;;109.60;98.67;;;;;;;9.17;100.00;102656.52;1914295;73;85446;-74
2022/04/17 03:08:05;;;;;;;107.50;96.60;;;;;;;9.25;100.00;102645.11;1985941;71;39601;-73
2022/04/17 03:13:49;;;;;;;109.33;98.23;;;;;;;8.89;100.00;102630.21;1849859;76;86453;-73
2022/04/17 03:19:33;;;;;;;110.67;98.53;;;;;;;8.91;100.00;102623.88;1872252;75;86253;-74
2022/04/17 03:25:18;;;;;;;110.90;99.37;;;;;;;8.94;100.00;102618.44;1868378;76;85608;-73
2022/04/17 03:31:04;;;;;;;107.50;96.33;;;;;;;8.89;100.00;102619.66;1985113;71;39760;-75
2022/04/17 03:36:49;;;;;;;113.23;101.27;;;;;;;8.76;100.00;102612.34;1846678;76;86122;-73
2022/04/17 03:42:35;;;;;;;109.23;98.43;;;;;;;8.76;100.00;102607.34;1876129;75;85430;-75
2022/04/17 03:48:21;;;;;;;111.77;99.67;;;;;;;8.61;100.00;102610.47;1883836;73;85481;-73
2022/04/17 03:54:05;;;;;;;111.40;99.40;;;;;;;8.61;100.00;102607.17;1949835;71;40312;-76
2022/04/17 03:59:48;;;;;;;109.87;97.80;;;;;;;8.61;100.00;102603.55;1876565;74;87183;-73
2022/04/17 04:05:32;;;;;;;111.00;98.80;;;;;;;8.57;100.00;102592.62;1895603;73;86239;-73
2022/04/17 04:11:17;;;;;;;104.27;92.77;;;;;;;8.54;100.00;102591.70;1946091;72;85359;-72
2022/04/17 04:17:02;;;;;;;110.67;93.87;;;;;;;8.22;100.00;102593.68;1984317;71;39566;-75
2022/04/17 04:22:46;;;;;;;112.13;97.00;;;;;;;8.23;100.00;102596.77;1888343;74;86460;-74
2022/04/17 04:28:37;;;;;;;110.77;96.40;;;;;;;8.32;100.00;102581.59;1862139;76;85955;-75
2022/04/17 04:34:22;;;;;;;110.20;93.70;;;;;;;8.34;100.00;102582.76;1913350;74;86560;-74
2022/04/17 04:40:09;;;;;;;105.30;93.70;;;;;;;8.53;100.00;102577.53;1979798;71;40300;-73
2022/04/17 04:46:09;;;;;;;105.53;93.07;;;;;;;8.40;100.00;102577.14;1843827;76;86766;-73
2022/04/17 04:51:54;;;;;;;99.13;88.83;;;;;;;7.98;100.00;102576.02;1850583;76;86315;-74
2022/04/17 04:57:38;;;;;;;103.87;93.07;;;;;;;8.15;100.00;102577.14;1882471;73;86517;-73
2022/04/17 05:03:25;;;;;;;101.27;90.23;;;;;;;8.11;100.00;102574.52;1862337;74;86093;-75
2022/04/17 05:09:09;;;;;;;104.53;93.60;;;;;;;8.04;100.00;102573.75;1985199;71;39678;-74
2022/04/17 05:14:54;;;;;;;105.70;94.43;;;;;;;8.31;100.00;102567.96;1831956;76;85594;-74
2022/04/17 05:20:38;;;;;;;104.60;93.00;;;;;;;8.23;100.00;102567.70;1871289;75;85615;-73
2022/04/17 05:26:23;;;;;;;109.17;94.70;;;;;;;8.31;100.00;102556.36;1857225;76;86300;-75
2022/04/17 05:32:09;;;;;;;116.00;99.63;;;;;;;8.33;100.00;102554.75;1984743;71;39758;-74
2022/04/17 05:37:54;;;;;;;117.37;102.00;;;;;;;8.36;100.00;102556.52;1881294;74;85588;-74
2022/04/17 05:43:40;;;;;;;112.93;100.50;;;;;;;8.41;100.00;102553.92;1885489;73;86323;-73
2022/04/17 05:49:24;;;;;;;116.53;96.47;;;;;;;8.45;100.00;102545.99;1803274;77;86992;-74
2022/04/17 05:55:11;;;;;;;115.83;100.77;;;;;;;8.71;100.00;102545.69;1963390;71;39610;-73
2022/04/17 06:00:55;;;;;;;112.20;98.27;;;;;;;8.66;100.00;102553.31;1847348;76;85987;-74
2022/04/17 06:06:39;;;;;;;114.53;97.30;;;;;;;8.90;100.00;102547.35;1870231;75;86461;-74
2022/04/17 06:12:23;;;;;;;119.73;99.83;;;;;;;9.09;100.00;102545.41;1876744;75;86222;-75
2022/04/17 06:21:13;;;;;;;121.30;102.17;;;;;;;9.40;100.00;102540.17;1978398;69;39542;-73
2022/04/17 06:23:43;;;;;;;121.77;99.73;;;;;;;9.45;100.00;102546.71;1917606;73;938827;-74
2022/04/17 06:26:13;;;;;;;111.33;95.93;;;;;;;9.62;100.00;102539.09;1845386;75;940906;-73
2022/04/17 06:28:43;;;;;;;118.83;98.83;;;;;;;9.60;100.00;102540.16;1919687;72;938895;-74
2022/04/17 06:31:14;;;;;;;120.07;102.57;;;;;;;9.66;100.00;102531.98;1920093;72;939562;-73
2022/04/17 06:33:44;;;;;;;122.53;101.33;;;;;;;9.80;100.00;102532.05;1892098;73;941148;-75
2022/04/17 06:36:15;;;;;;;120.80;101.77;;;;;;;9.91;100.00;102529.30;1872021;75;943198;-75
2022/04/17 06:38:46;;;;;;;127.07;103.57;;;;;;;9.96;100.00;102529.44;1887365;75;941014;-74
2022/04/17 06:41:16;;;;;;;123.70;104.80;;;;;;;10.04;100.00;102526.30;1890766;74;943054;-73
2022/04/17 06:43:46;;;;;;;126.83;105.07;;;;;;;10.11;100.00;102528.09;1932998;72;942252;-74
2022/04/17 06:46:16;;;;;;;120.37;102.93;;;;;;;10.17;100.00;102525.25;1891754;74;944948;-73
2022/04/17 06:48:47;;;;;;;117.20;103.27;;;;;;;10.30;100.00;102522.22;1885498;75;943151;-74
2022/04/17 06:54:31;;;;;;;115.53;103.37;;;;;;;10.50;100.00;102506.54;1831246;76;85379;-74
2022/04/17 07:00:17;;;;;;;117.90;105.23;;;;;;;10.55;100.00;102507.20;1981131;72;86376;-74
2022/04/17 07:06:02;;;;;;;110.67;99.67;;;;;;;10.70;100.00;102503.34;1975749;71;39693;-74
2022/04/17 07:11:47;;;;;;;110.20;99.43;;;;;;;10.81;100.00;102501.09;1886923;74;86356;-74
2022/04/17 07:17:36;;;;;;;108.53;97.80;;;;;;;11.03;100.00;102480.41;1893622;74;87195;-75
2022/04/17 07:23:22;;;;;;;111.10;100.50;;;;;;;11.30;100.00;102480.06;1918163;73;86373;-73
2022/04/17 07:29:06;;;;;;;107.10;97.60;;;;;;;11.62;100.00;102477.58;1938818;71;39604;-73
2022/04/17 07:34:50;;;;;;;101.63;93.13;;;;;;;11.95;100.00;102465.06;1825944;76;86239;-74
2022/04/17 07:40:42;;;;;;;98.10;89.73;;;;;;;11.89;100.00;102456.90;1837817;76;86551;-74
2022/04/17 07:46:27;;;;;;;97.67;89.57;;;;;;;12.18;100.00;102454.27;1800781;77;85789;-73
2022/04/17 07:52:12;;;;;;;96.83;88.97;;;;;;;12.39;100.00;102445.62;1953983;71;39802;-73
2022/04/17 07:57:57;;;;;;;89.80;82.67;;;;;;;12.76;100.00;102442.47;1838174;76;86434;-75
2022/04/17 08:03:48;;;;;;;81.37;74.77;;;;;;;13.12;100.00;102436.22;1796314;78;86528;-74
2022/04/17 08:09:33;;;;;;;78.20;71.80;;;;;;;13.36;100.00;102435.86;1886064;75;85469;-74
2022/04/17 08:15:18;;;;;;;76.90;70.67;;;;;;;13.51;100.00;102420.66;1913829;74;86011;-74
2022/04/17 08:21:02;;;;;;;71.43;65.47;;;;;;;13.81;100.00;102412.52;1958414;71;39565;-75
2022/04/17 08:26:46;;;;;;;69.97;64.50;;;;;;;14.07;100.00;102414.36;1885385;74;86317;-75
2022/04/17 08:32:30;;;;;;;62.03;57.13;;;;;;;14.81;100.00;102404.33;1835999;77;86364;-73
2022/04/17 08:38:16;;;;;;;52.20;48.40;;;;;;;15.07;100.00;102399.63;1909650;74;86303;-74
2022/04/17 08:44:00;;;;;;;46.20;42.90;;;;;;;15.43;100.00;102392.11;1801618;78;86065;-74
2022/04/17 08:49:45;;;;;;;38.07;35.23;;;;;;;15.53;100.00;102388.50;1810049;78;86346;-74
2022/04/17 08:55:31;;;;;;;34.30;31.80;;;;;;;15.72;100.00;102375.58;1850297;76;86550;-73
2022/04/17 09:01:17;;;;;;;28.50;26.10;;;;;;;16.03;100.00;102373.55;1842384;75;86454;-73
2022/04/17 09:07:03;;;;;;;22.83;21.33;;;;;;;16.60;100.00;102366.06;1930724;71;39541;-73
2022/04/17 09:12:47;;;;;;;18.57;17.20;;;;;;;16.62;100.00;102367.44;1890277;74;86355;-74
2022/04/17 09:18:32;;;;;;;17.63;16.53;;;;;;;16.93;100.00;102361.64;1899348;74;86534;-74
2022/04/17 09:24:19;;;;;;;16.50;15.50;;;;;;;16.94;100.00;102367.53;1906819;72;86068;-73
2022/04/17 09:30:26;;;;;;;13.30;12.40;;;;;;;17.11;100.00;102346.34;1974483;71;39627;-74
2022/04/17 09:36:12;;;;;;;12.50;11.73;;;;;;;17.34;100.00;102344.73;1938921;71;39462;-73
2022/04/17 09:41:59;;;;;;;12.67;11.97;;;;;;;17.45;100.00;102339.88;1844454;76;86484;-73
2022/04/17 09:48:03;;;;;;;13.20;12.50;;;;;;;17.48;100.00;102326.62;1983377;70;39583;-71
2022/04/17 09:53:58;;;;;;;11.80;11.13;;;;;;;17.40;100.00;102323.05;1882661;74;86079;-73
2022/04/17 09:59:47;;;;;;;12.10;11.30;;;;;;;17.52;100.00;102317.31;1883320;74;86512;-73
2022/04/17 10:05:32;;;;;;;12.53;11.73;;;;;;;17.63;100.00;102307.66;1879254;75;86596;-73
2022/04/17 10:14:32;;;;;;;11.70;11.03;;;;;;;17.90;100.00;102300.63;1927836;73;86306;-72
2022/04/17 10:17:05;;;;;;;11.08;10.35;;;;;;;17.77;100.00;102290.93;1870166;72;937837;-73
2022/04/17 10:19:39;;;;;;;11.60;11.00;;;;;;;17.86;100.00;102289.70;1931318;71;938802;-72
2022/04/17 10:25:24;;;;;;;12.00;11.40;;;;;;;18.01;100.00;102270.66;1805118;76;86056;-73
2022/04/17 10:31:20;;;;;;;12.27;11.67;;;;;;;18.19;100.00;102269.02;1981437;71;39547;-75
2022/04/17 10:34:16;;;;;;;12.43;11.73;;;;;;;17.97;100.00;102271.00;1898682;73;938835;-73
2022/04/17 10:40:13;;;;;;;12.53;11.93;;;;;;;18.23;100.00;102246.19;1943872;71;39558;-72
2022/04/17 10:46:15;;;;;;;12.20;11.60;;;;;;;18.30;100.00;102238.22;1977564;71;40125;-76
2022/04/17 10:52:01;;;;;;;12.60;11.90;;;;;;;18.19;100.00;102231.89;1875067;74;86578;-74
2022/04/17 10:58:03;;;;;;;12.10;11.50;;;;;;;18.50;100.00;102215.97;1982412;71;40424;-72
2022/04/17 11:03:53;;;;;;;11.70;11.10;;;;;;;18.65;100.00;102204.52;1877939;74;86768;-72
2022/04/17 11:09:42;;;;;;;11.60;11.00;;;;;;;18.89;100.00;102188.31;1885356;74;86328;-74
2022/04/17 11:15:42;;;;;;;12.20;11.60;;;;;;;18.94;100.00;102180.34;1900309;74;86165;-75
2022/04/17 11:21:37;;;;;;;13.27;12.67;;;;;;;18.97;100.00;102170.70;1870987;75;86402;-74
2022/04/17 11:30:43;;;;;;;12.40;11.70;;;;;;;19.11;100.00;102165.09;1834015;77;86507;-73
2022/04/17 11:36:27;;;;;;;12.50;11.90;;;;;;;18.98;100.00;102156.89;1801696;77;86020;-73
2022/04/17 11:42:13;;;;;;;19.83;18.17;;;;;;;19.08;100.00;102151.05;1983743;71;40290;-74
2022/04/17 11:48:00;;;;;;;14.23;13.10;;;;;;;19.26;100.00;102145.64;1834804;76;86426;-75
2022/04/17 11:53:44;;;;;;;12.43;11.83;;;;;;;18.91;92.32;102140.95;1800146;78;86221;-72
2022/04/17 11:59:28;;;;;;;12.93;12.23;;;;;;;18.93;90.56;102133.61;1873394;75;85359;-72
2022/04/17 12:05:23;;;;;;;13.07;12.37;;;;;;;19.04;93.12;102123.81;1865962;75;86468;-72
2022/04/17 12:14:31;;;;;;;12.40;11.80;;;;;;;19.45;93.76;102120.48;1944461;73;86083;-74
2022/04/17 12:17:02;;;;;;;12.70;12.00;;;;;;;19.40;89.54;102114.08;1863406;74;936642;-72
2022/04/17 12:19:32;;;;;;;12.97;12.27;;;;;;;19.28;88.84;102116.59;1857904;74;937814;-75
2022/04/17 12:25:22;;;;;;;12.33;11.73;;;;;;;19.28;89.17;102104.75;1924278;72;86289;-71
2022/04/17 12:31:07;;;;;;;12.60;11.90;;;;;;;19.32;84.13;102093.11;1948833;71;39689;-73
2022/04/17 12:36:51;;;;;;;12.40;11.70;;;;;;;19.42;80.48;102092.91;1825789;76;86108;-72
2022/04/17 12:42:47;;;;;;;12.07;11.27;;;;;;;19.40;77.87;102091.53;1876271;75;86148;-71
2022/04/17 12:48:39;;;;;;;12.87;12.27;;;;;;;19.51;79.79;102082.56;1881309;74;86291;-74
2022/04/17 12:54:24;;;;;;;12.97;12.27;;;;;;;19.51;72.26;102081.75;1858786;76;86151;-73
2022/04/17 13:00:19;;;;;;;12.37;11.77;;;;;;;19.38;75.94;102074.92;1912926;72;86058;-73
2022/04/17 13:06:05;;;;;;;13.37;12.67;;;;;;;19.47;80.43;102066.59;1936338;71;39511;-72
2022/04/17 13:11:51;;;;;;;12.30;11.70;;;;;;;19.61;79.57;102053.31;1819989;76;86411;-74
2022/04/17 13:17:46;;;;;;;13.10;12.40;;;;;;;19.54;74.54;102050.11;1879443;74;86302;-71
2022/04/17 13:23:32;;;;;;;12.73;12.13;;;;;;;19.54;73.48;102028.97;1850584;76;86328;-73
2022/04/17 13:29:17;;;;;;;12.87;12.17;;;;;;;19.44;64.20;102023.55;1942860;71;86403;-71
2022/04/17 13:34:59;;;;;;;13.50;12.70;;;;;;;19.51;68.68;102021.16;1807003;78;86270;-71
2022/04/17 13:40:43;;;;;;;12.10;11.50;;;;;;;19.65;63.85;102010.66;1807709;78;86429;-71
2022/04/17 13:46:31;;;;;;;12.03;11.47;;;;;;;19.45;61.43;102011.14;1809507;77;86551;-72
2022/04/17 13:52:15;;;;;;;12.63;11.90;;;;;;;19.65;69.04;101997.97;1949496;73;86360;-71
2022/04/17 13:57:57;;;;;;;11.87;11.27;;;;;;;19.64;66.85;101996.90;1823392;76;85450;-74
2022/04/17 14:03:42;;;;;;;11.77;11.20;;;;;;;19.57;63.35;101991.69;1824208;76;86777;-72
2022/04/17 14:09:30;;;;;;;12.40;11.80;;;;;;;19.54;61.95;101979.64;1807607;77;86410;-72
2022/04/17 14:15:14;;;;;;;12.47;11.80;;;;;;;19.61;54.64;101972.14;1860352;74;86098;-74
2022/04/17 14:20:59;;;;;;;12.17;11.67;;;;;;;19.82;55.78;101959.20;1952969;72;86082;-73
2022/04/17 14:26:43;;;;;;;11.80;11.30;;;;;;;19.47;47.60;101941.18;1807170;78;86004;-74
2022/04/17 14:32:27;;;;;;;15.40;14.70;;;;;;;19.93;54.74;101921.14;1805618;77;85414;-73
2022/04/17 14:38:11;;;;;;;11.90;11.40;;;;;;;19.94;48.90;101931.25;1977681;71;39703;-72
2022/04/17 14:43:55;;;;;;;11.53;11.03;;;;;;;19.81;48.30;101930.17;1891460;74;86405;-73
2022/04/17 14:49:42;;;;;;;11.67;11.17;;;;;;;19.76;46.67;101924.69;1908068;73;86274;-73
2022/04/17 14:55:26;;;;;;;12.50;12.00;;;;;;;19.57;48.30;101909.94;1822604;77;85851;-73
2022/04/17 15:01:10;;;;;;;11.87;11.30;;;;;;;19.69;41.68;101904.55;1981942;71;39608;-71
2022/04/17 15:06:55;;;;;;;11.50;11.00;;;;;;;19.49;43.66;101896.05;1874016;74;86314;-72
2022/04/17 15:12:42;;;;;;;11.67;11.17;;;;;;;19.52;41.89;101881.88;1870018;75;86435;-71
2022/04/17 15:18:26;;;;;;;11.70;11.30;;;;;;;19.72;43.06;101868.69;1807765;77;86312;-72
2022/04/17 15:24:11;;;;;;;12.10;11.50;;;;;;;19.89;43.79;101865.97;1942677;71;39482;-73
2022/04/17 15:29:55;;;;;;;11.87;11.30;;;;;;;19.85;48.57;101860.70;1879520;74;86769;-73
2022/04/17 15:35:40;;;;;;;11.97;11.47;;;;;;;19.62;46.01;101842.73;1886499;74;85355;-71
2022/04/17 15:41:25;;;;;;;12.73;12.13;;;;;;;19.60;48.44;101832.34;1805692;76;86256;-74
2022/04/17 15:53:13;;;;;;;12.60;11.90;;;;;;;19.61;47.66;101824.16;1939461;71;39742;-74
2022/04/17 15:58:57;;;;;;;11.93;11.23;;;;;;;19.35;48.60;101826.20;1834160;76;86270;-75
2022/04/17 16:04:42;;;;;;;12.37;11.77;;;;;;;19.43;51.48;101831.09;1886798;74;86491;-74
2022/04/17 16:10:27;;;;;;;12.10;11.60;;;;;;;19.19;54.94;101833.95;1854198;76;86294;-73
2022/04/17 16:16:11;;;;;;;12.40;11.90;;;;;;;19.14;56.79;101815.19;1984011;71;39687;-73
2022/04/17 16:21:57;;;;;;;12.37;11.60;;;;;;;19.29;58.95;101812.00;1841690;76;86492;-76
2022/04/17 16:27:42;;;;;;;12.63;11.93;;;;;;;19.37;61.72;101811.23;1887253;74;85371;-74
2022/04/17 16:33:26;;;;;;;11.97;11.37;;;;;;;19.24;58.55;101798.05;1798031;77;86708;-71
2022/04/17 16:39:11;;;;;;;13.00;12.30;;;;;;;19.90;100.00;101802.75;1917052;71;39578;-71
2022/04/17 16:44:56;;;;;;;12.13;11.63;;;;;;;19.36;71.06;101781.38;1831115;76;85989;-78
2022/04/17 16:50:41;;;;;;;11.70;10.87;;;;;;;19.62;82.84;101784.38;1882427;74;86202;-77
2022/04/17 16:56:25;;;;;;;11.40;10.80;;;;;;;19.61;83.51;101777.07;1832328;77;86072;-74
2022/04/17 17:02:08;;;;;;;13.90;12.80;;;;;;;19.61;85.28;101784.12;1981036;71;39575;-76
2022/04/17 17:11:06;;;;;;;12.23;11.67;;;;;;;18.73;68.31;101777.91;1978497;71;39662;-72
2022/04/17 17:16:52;;;;;;;12.57;11.97;;;;;;;18.36;66.48;101781.23;1839939;76;86373;-72
2022/04/17 17:22:36;;;;;;;12.73;12.13;;;;;;;18.19;64.08;101785.27;1882729;74;86300;-72
2022/04/17 17:28:22;;;;;;;12.70;12.00;;;;;;;18.01;63.46;101778.61;1910500;74;86488;-69
2022/04/17 17:34:04;;;;;;;11.70;11.20;;;;;;;18.57;74.83;101771.22;1976907;71;39571;-71
2022/04/17 17:39:50;;;;;;;11.77;11.27;;;;;;;18.05;65.15;101780.25;1830035;75;86315;-71
2022/04/17 17:45:33;;;;;;;11.83;11.17;;;;;;;17.54;67.01;101778.98;1883571;73;86286;-74
2022/04/17 17:51:19;;;;;;;11.67;11.17;;;;;;;18.30;78.45;101764.23;1911319;72;86092;-71
2022/04/17 17:57:05;;;;;;;12.17;11.57;;;;;;;17.48;69.41;101769.80;1947955;72;39808;-76
2022/04/17 18:02:49;;;;;;;11.47;10.97;;;;;;;16.91;75.54;101775.86;1901046;74;85901;-73
2022/04/17 18:14:39;;;;;;;12.43;11.83;;;;;;;16.61;80.16;101769.58;1884511;73;86279;-70
2022/04/17 18:20:24;;;;;;;12.13;11.53;;;;;;;16.60;78.97;101767.91;1807154;77;86270;-70
2022/04/17 18:26:10;;;;;;;12.07;11.47;;;;;;;16.45;83.54;101770.08;1921101;71;39583;-69
2022/04/17 18:31:54;;;;;;;12.20;11.60;;;;;;;16.21;86.64;101770.14;1825364;76;85379;-70
2022/04/17 18:37:38;;;;;;;13.23;12.43;;;;;;;16.23;86.06;101777.67;1876719;73;85494;-70
2022/04/17 18:43:26;;;;;;;13.53;12.77;;;;;;;16.13;86.74;101764.61;1866084;76;86264;-70
2022/04/17 18:49:11;;;;;;;13.43;12.67;;;;;;;16.11;88.80;101771.10;1939435;71;39684;-71
2022/04/17 18:54:56;;;;;;;13.17;12.37;;;;;;;15.83;92.35;101767.23;1830346;76;86280;-70
2022/04/17 19:00:40;;;;;;;12.17;11.47;;;;;;;15.83;93.26;101760.22;1900611;73;86762;-70
2022/04/17 19:06:24;;;;;;;12.43;11.63;;;;;;;15.68;97.48;101777.78;1819892;77;86736;-70
2022/04/17 19:18:12;;;;;;;11.57;10.93;;;;;;;15.44;100.00;101773.53;1981757;71;39500;-73
2022/04/17 19:23:56;;;;;;;12.20;11.50;;;;;;;15.17;100.00;101788.06;1842305;76;86635;-71
2022/04/17 19:35:36;;;;;;;12.23;11.43;;;;;;;15.07;100.00;101801.29;1835468;75;938856;-74
2022/04/17 19:38:07;;;;;;;12.43;11.57;;;;;;;14.99;100.00;101799.95;1794980;76;941066;-75
2022/04/17 19:40:38;;;;;;;12.30;11.60;;;;;;;14.99;100.00;101802.20;1812192;77;939003;-75
2022/04/17 19:43:09;;;;;;;12.07;11.47;;;;;;;14.87;100.00;101805.93;1795508;78;940949;-76
2022/04/17 19:45:39;;;;;;;11.97;11.37;;;;;;;14.69;100.00;101808.56;1797087;78;938182;-76
2022/04/17 19:48:10;;;;;;;12.73;12.03;;;;;;;14.48;100.00;101810.09;1791387;78;940920;-75
2022/04/17 19:50:41;;;;;;;11.90;11.30;;;;;;;14.09;100.00;101809.13;1808544;78;939006;-76
2022/04/17 19:53:13;;;;;;;11.67;11.07;;;;;;;14.00;100.00;101805.24;1789240;77;940891;-76
2022/04/17 19:58:58;;;;;;;11.70;11.10;;;;;;;13.80;100.00;101799.73;1825368;75;85477;-74
2022/04/17 20:04:43;;;;;;;11.90;11.30;;;;;;;13.62;100.00;101788.05;1807199;78;85551;-75
2022/04/17 20:10:28;;;;;;;12.63;11.83;;;;;;;13.52;100.00;101784.45;1798339;77;86352;-76
2022/04/17 20:16:12;;;;;;;14.13;13.13;;;;;;;13.09;100.00;101778.89;1940013;71;40344;-75
2022/04/17 20:22:00;;;;;;;14.83;13.73;;;;;;;12.96;100.00;101768.30;1815824;76;86138;-75
2022/04/17 20:27:44;;;;;;;13.40;12.60;;;;;;;12.94;100.00;101765.77;1808188;78;86568;-74
2022/04/17 20:33:29;;;;;;;13.93;13.13;;;;;;;12.79;100.00;101759.63;1806087;77;86411;-75
2022/04/17 20:39:15;;;;;;;13.67;12.73;;;;;;;12.70;100.00;101750.72;1981026;70;39512;-75
2022/04/17 20:51:01;;;;;;;14.00;13.10;;;;;;;12.49;100.00;101754.59;1802803;78;86267;-78
2022/04/17 20:56:46;;;;;;;14.73;13.60;;;;;;;11.57;100.00;101756.16;1903093;74;86567;-76
2022/04/17 21:02:29;;;;;;;13.60;12.60;;;;;;;11.59;100.00;101758.68;1864217;75;86440;-74
2022/04/17 21:08:13;;;;;;;14.23;13.23;;;;;;;11.62;100.00;101779.00;1937277;71;39502;-75
2022/04/17 21:13:57;;;;;;;14.07;13.20;;;;;;;11.52;100.00;101776.99;1831457;76;86217;-73
2022/04/17 21:19:40;;;;;;;12.93;12.17;;;;;;;11.74;100.00;101785.22;1884529;74;86239;-76
2022/04/17 21:25:25;;;;;;;14.90;13.90;;;;;;;11.91;100.00;101775.28;1809167;77;86111;-75
2022/04/17 21:31:09;;;;;;;15.40;14.40;;;;;;;11.40;100.00;101781.92;1982955;71;39680;-76
2022/04/17 21:36:54;;;;;;;19.00;17.90;;;;;;;11.15;100.00;101772.02;1844399;76;86041;-77
2022/04/17 21:42:40;;;;;;;19.10;18.00;;;;;;;10.88;100.00;101772.06;1897740;73;85269;-76
2022/04/17 21:48:32;;;;;;;20.60;19.50;;;;;;;11.01;100.00;101769.39;1730626;80;86014;-73
2022/04/17 21:54:21;;;;;;;21.77;20.47;;;;;;;10.38;100.00;101766.33;1935246;73;86424;-75
2022/04/17 22:06:09;;;;;;;23.93;22.37;;;;;;;10.63;100.00;101762.11;1976054;71;39576;-75
2022/04/17 22:11:56;;;;;;;25.73;24.20;;;;;;;10.44;100.00;101761.64;1833417;76;86505;-76
2022/04/17 22:17:41;;;;;;;28.60;26.80;;;;;;;10.08;100.00;101755.39;1880317;73;86322;-77
2022/04/17 22:23:27;;;;;;;27.57;25.77;;;;;;;10.32;100.00;101763.19;1948348;72;86124;-78
2022/04/17 22:29:11;;;;;;;26.30;24.70;;;;;;;10.30;100.00;101767.34;1924677;71;39550;-78
2022/04/17 22:34:55;;;;;;;26.20;24.70;;;;;;;10.27;100.00;101763.70;1882422;74;85993;-78
2022/04/17 22:40:38;;;;;;;27.77;26.13;;;;;;;10.52;100.00;101758.41;1870846;75;86411;-76
2022/04/17 22:46:22;;;;;;;27.97;26.17;;;;;;;10.23;100.00;101762.52;1910522;74;86563;-73
2022/04/17 22:52:09;;;;;;;27.40;25.77;;;;;;;10.22;100.00;101771.98;1983357;71;39684;-77
2022/04/17 22:57:55;;;;;;;25.00;23.50;;;;;;;10.25;100.00;101779.23;1801818;78;86408;-76
2022/04/17 23:03:38;;;;;;;25.33;23.83;;;;;;;10.71;100.00;101772.20;1889899;73;86119;-76
2022/04/17 23:09:22;;;;;;;29.97;28.27;;;;;;;10.20;100.00;101761.12;1908501;74;86156;-74
2022/04/17 23:15:07;;;;;;;34.03;32.03;;;;;;;9.80;100.00;101762.81;1979755;71;39755;-75
2022/04/17 23:20:52;;;;;;;34.47;32.47;;;;;;;10.19;100.00;101753.03;1978929;71;85389;-76
2022/04/17 23:26:36;;;;;;;28.90;27.17;;;;;;;10.66;100.00;101758.25;1882089;73;85283;-76
2022/04/17 23:32:21;;;;;;;23.80;22.50;;;;;;;10.95;100.00;101762.97;1904508;72;86131;-75
2022/04/17 23:38:06;;;;;;;20.77;19.40;;;;;;;11.22;100.00;101758.70;1986371;71;39561;-76
2022/04/17 23:43:50;;;;;;;18.17;16.97;;;;;;;11.45;100.00;101762.48;1813654;76;85971;-75
2022/04/17 23:49:34;;;;;;;15.43;14.63;;;;;;;11.60;100.00;101754.22;1889775;73;86624;-81
2022/04/17 23:55:20;;;;;;;15.97;14.87;;;;;;;11.72;100.00;101747.09;1937554;72;86296;-79
